Denhart, Iowa
Current Conditions -  °F | °C
As of 7:55 PM on Wednesday 26 Nov 2014 (Local Time) from KCAV Reporting Station
Unknown Precip Unknown Precip  
Wind Chill:   Ceiling: 900
Heat Index: 21°   Visibility: 5mi
Dew Point: 21°   Wind: 21mph
Humidity: 100%   Direction: 340°NNW
Pressure: 30.29"   Gusts: 26mph
Location:  42.9524°N, 93.7361°W
Report Text: KCAV 270155Z AUTO 34018G23KT 5SM -UP OVC009 M06/M06 A3029 RMK AO2
Loading
Personal Weather Stations






























Interactive Weather Map New forecast layout! Learn more

10-Day Weather Forecast

Advertisements
Track Severe Weather on mobile